sensor_id;sensor_type;location;lat;lon;timestamp;temperature;humidity
75621;DHT22;64574;48.506;-2.750;2022-12-07T00:01:46;3.00;73.80
75621;DHT22;64574;48.506;-2.750;2022-12-07T00:04:14;3.10;74.20
75621;DHT22;64574;48.506;-2.750;2022-12-07T00:06:43;3.10;74.40
75621;DHT22;64574;48.506;-2.750;2022-12-07T00:09:13;3.00;75.10
75621;DHT22;64574;48.506;-2.750;2022-12-07T00:11:39;3.10;74.80
75621;DHT22;64574;48.506;-2.750;2022-12-07T00:14:07;3.10;74.10
75621;DHT22;64574;48.506;-2.750;2022-12-07T00:16:33;3.00;74.00
75621;DHT22;64574;48.506;-2.750;2022-12-07T00:19:00;3.00;73.50
75621;DHT22;64574;48.506;-2.750;2022-12-07T00:21:28;2.90;73.50
75621;DHT22;64574;48.506;-2.750;2022-12-07T00:23:55;2.90;73.70
75621;DHT22;64574;48.506;-2.750;2022-12-07T00:26:23;2.90;73.10
75621;DHT22;64574;48.506;-2.750;2022-12-07T00:28:55;2.90;72.90
75621;DHT22;64574;48.506;-2.750;2022-12-07T00:31:23;2.80;73.00
75621;DHT22;64574;48.506;-2.750;2022-12-07T00:33:49;2.80;73.30
75621;DHT22;64574;48.506;-2.750;2022-12-07T00:36:18;2.80;73.20
75621;DHT22;64574;48.506;-2.750;2022-12-07T00:38:44;2.80;73.40
75621;DHT22;64574;48.506;-2.750;2022-12-07T00:41:15;2.70;73.10
75621;DHT22;64574;48.506;-2.750;2022-12-07T00:43:42;2.70;73.60
75621;DHT22;64574;48.506;-2.750;2022-12-07T00:46:08;2.80;73.60
75621;DHT22;64574;48.506;-2.750;2022-12-07T00:48:34;2.80;72.80
75621;DHT22;64574;48.506;-2.750;2022-12-07T00:51:00;2.70;73.20
75621;DHT22;64574;48.506;-2.750;2022-12-07T00:53:26;2.50;73.60
75621;DHT22;64574;48.506;-2.750;2022-12-07T00:55:52;2.50;74.00
75621;DHT22;64574;48.506;-2.750;2022-12-07T00:58:18;2.50;73.50
75621;DHT22;64574;48.506;-2.750;2022-12-07T01:00:44;2.40;73.60
75621;DHT22;64574;48.506;-2.750;2022-12-07T01:03:12;2.50;73.20
75621;DHT22;64574;48.506;-2.750;2022-12-07T01:05:38;2.50;73.30
75621;DHT22;64574;48.506;-2.750;2022-12-07T01:08:04;2.50;73.60
75621;DHT22;64574;48.506;-2.750;2022-12-07T01:10:30;2.50;73.50
75621;DHT22;64574;48.506;-2.750;2022-12-07T01:12:57;2.50;73.30
75621;DHT22;64574;48.506;-2.750;2022-12-07T01:15:22;2.60;73.00
75621;DHT22;64574;48.506;-2.750;2022-12-07T01:17:48;2.60;73.00
75621;DHT22;64574;48.506;-2.750;2022-12-07T01:20:14;2.50;72.90
75621;DHT22;64574;48.506;-2.750;2022-12-07T01:22:42;2.50;73.50
75621;DHT22;64574;48.506;-2.750;2022-12-07T01:25:09;2.70;72.70
75621;DHT22;64574;48.506;-2.750;2022-12-07T01:27:35;2.50;72.90
75621;DHT22;64574;48.506;-2.750;2022-12-07T01:30:03;2.50;72.70
75621;DHT22;64574;48.506;-2.750;2022-12-07T01:32:29;2.40;72.90
75621;DHT22;64574;48.506;-2.750;2022-12-07T01:34:55;2.40;73.00
75621;DHT22;64574;48.506;-2.750;2022-12-07T01:37:21;2.30;73.10
75621;DHT22;64574;48.506;-2.750;2022-12-07T01:39:50;2.30;73.40
75621;DHT22;64574;48.506;-2.750;2022-12-07T01:42:17;2.40;72.80
75621;DHT22;64574;48.506;-2.750;2022-12-07T01:47:45;2.30;73.10
75621;DHT22;64574;48.506;-2.750;2022-12-07T01:50:12;2.30;72.90
75621;DHT22;64574;48.506;-2.750;2022-12-07T01:52:39;2.10;73.30
75621;DHT22;64574;48.506;-2.750;2022-12-07T01:55:09;2.10;73.50
75621;DHT22;64574;48.506;-2.750;2022-12-07T01:57:40;2.10;73.60
75621;DHT22;64574;48.506;-2.750;2022-12-07T02:00:08;2.10;73.10
75621;DHT22;64574;48.506;-2.750;2022-12-07T02:02:37;2.10;73.20
75621;DHT22;64574;48.506;-2.750;2022-12-07T02:05:05;2.20;73.20
75621;DHT22;64574;48.506;-2.750;2022-12-07T02:07:32;2.30;73.40
75621;DHT22;64574;48.506;-2.750;2022-12-07T02:10:22;2.30;72.90
75621;DHT22;64574;48.506;-2.750;2022-12-07T02:13:03;2.30;72.80
75621;DHT22;64574;48.506;-2.750;2022-12-07T02:15:54;2.30;73.10
75621;DHT22;64574;48.506;-2.750;2022-12-07T02:24:13;2.50;73.00
75621;DHT22;64574;48.506;-2.750;2022-12-07T02:27:02;2.40;73.10
75621;DHT22;64574;48.506;-2.750;2022-12-07T02:32:12;2.30;73.80
75621;DHT22;64574;48.506;-2.750;2022-12-07T02:35:03;2.30;73.70
75621;DHT22;64574;48.506;-2.750;2022-12-07T02:37:45;2.40;73.50
75621;DHT22;64574;48.506;-2.750;2022-12-07T02:40:33;2.40;73.30
75621;DHT22;64574;48.506;-2.750;2022-12-07T02:43:20;2.40;73.20
75621;DHT22;64574;48.506;-2.750;2022-12-07T02:45:48;2.30;73.50
75621;DHT22;64574;48.506;-2.750;2022-12-07T02:48:17;2.30;73.50
75621;DHT22;64574;48.506;-2.750;2022-12-07T02:50:48;2.20;73.80
75621;DHT22;64574;48.506;-2.750;2022-12-07T02:53:33;2.20;73.90
75621;DHT22;64574;48.506;-2.750;2022-12-07T02:56:06;2.30;73.70
75621;DHT22;64574;48.506;-2.750;2022-12-07T03:03:45;2.30;74.40
75621;DHT22;64574;48.506;-2.750;2022-12-07T03:06:16;2.30;74.20
75621;DHT22;64574;48.506;-2.750;2022-12-07T03:11:22;2.30;74.50
75621;DHT22;64574;48.506;-2.750;2022-12-07T03:16:35;2.30;74.20
75621;DHT22;64574;48.506;-2.750;2022-12-07T03:19:08;2.30;74.40
75621;DHT22;64574;48.506;-2.750;2022-12-07T03:21:41;2.40;74.40
75621;DHT22;64574;48.506;-2.750;2022-12-07T03:24:12;2.40;74.20
75621;DHT22;64574;48.506;-2.750;2022-12-07T03:26:42;2.40;74.40
75621;DHT22;64574;48.506;-2.750;2022-12-07T03:29:18;2.20;75.20
75621;DHT22;64574;48.506;-2.750;2022-12-07T03:31:48;2.20;75.00
75621;DHT22;64574;48.506;-2.750;2022-12-07T03:34:24;2.20;75.10
75621;DHT22;64574;48.506;-2.750;2022-12-07T03:36:59;2.30;75.10
75621;DHT22;64574;48.506;-2.750;2022-12-07T03:39:27;2.30;74.80
75621;DHT22;64574;48.506;-2.750;2022-12-07T03:41:54;2.40;74.80
75621;DHT22;64574;48.506;-2.750;2022-12-07T03:44:22;2.30;74.70
75621;DHT22;64574;48.506;-2.750;2022-12-07T03:55:19;2.40;75.00
75621;DHT22;64574;48.506;-2.750;2022-12-07T03:57:48;2.40;74.70
75621;DHT22;64574;48.506;-2.750;2022-12-07T04:00:15;2.40;74.80
75621;DHT22;64574;48.506;-2.750;2022-12-07T04:02:42;2.40;74.70
75621;DHT22;64574;48.506;-2.750;2022-12-07T04:05:08;2.40;75.00
75621;DHT22;64574;48.506;-2.750;2022-12-07T04:07:34;2.50;75.00
75621;DHT22;64574;48.506;-2.750;2022-12-07T04:10:00;2.40;74.90
75621;DHT22;64574;48.506;-2.750;2022-12-07T04:12:25;2.40;75.00
75621;DHT22;64574;48.506;-2.750;2022-12-07T04:14:51;2.50;74.80
75621;DHT22;64574;48.506;-2.750;2022-12-07T04:17:16;2.40;75.00
75621;DHT22;64574;48.506;-2.750;2022-12-07T04:19:42;2.40;75.50
75621;DHT22;64574;48.506;-2.750;2022-12-07T04:22:08;2.40;75.20
75621;DHT22;64574;48.506;-2.750;2022-12-07T04:24:34;2.50;75.10
75621;DHT22;64574;48.506;-2.750;2022-12-07T04:26:59;2.50;75.00
75621;DHT22;64574;48.506;-2.750;2022-12-07T04:29:25;2.50;74.80
75621;DHT22;64574;48.506;-2.750;2022-12-07T04:31:51;2.50;74.80
75621;DHT22;64574;48.506;-2.750;2022-12-07T04:34:18;2.50;74.90
75621;DHT22;64574;48.506;-2.750;2022-12-07T04:36:45;2.50;75.10
75621;DHT22;64574;48.506;-2.750;2022-12-07T04:41:44;2.50;75.00
75621;DHT22;64574;48.506;-2.750;2022-12-07T04:44:10;2.40;75.40
75621;DHT22;64574;48.506;-2.750;2022-12-07T04:46:39;2.40;75.50
75621;DHT22;64574;48.506;-2.750;2022-12-07T04:49:05;2.50;75.20
75621;DHT22;64574;48.506;-2.750;2022-12-07T04:51:31;2.40;75.20
75621;DHT22;64574;48.506;-2.750;2022-12-07T04:53:56;2.50;75.50
75621;DHT22;64574;48.506;-2.750;2022-12-07T04:56:24;2.50;75.30
75621;DHT22;64574;48.506;-2.750;2022-12-07T04:58:51;2.50;75.40
75621;DHT22;64574;48.506;-2.750;2022-12-07T05:01:17;2.60;75.20
75621;DHT22;64574;48.506;-2.750;2022-12-07T05:03:43;2.60;74.90
75621;DHT22;64574;48.506;-2.750;2022-12-07T05:06:10;2.50;75.20
75621;DHT22;64574;48.506;-2.750;2022-12-07T05:08:36;2.50;75.50
75621;DHT22;64574;48.506;-2.750;2022-12-07T05:11:03;2.50;75.70
75621;DHT22;64574;48.506;-2.750;2022-12-07T05:13:29;2.50;75.70
75621;DHT22;64574;48.506;-2.750;2022-12-07T05:15:55;2.50;75.50
75621;DHT22;64574;48.506;-2.750;2022-12-07T05:18:20;2.50;75.70
75621;DHT22;64574;48.506;-2.750;2022-12-07T05:20:46;2.50;75.90
75621;DHT22;64574;48.506;-2.750;2022-12-07T05:23:12;2.60;75.80
75621;DHT22;64574;48.506;-2.750;2022-12-07T05:25:37;2.60;75.60
75621;DHT22;64574;48.506;-2.750;2022-12-07T05:28:04;2.50;75.80
75621;DHT22;64574;48.506;-2.750;2022-12-07T05:30:30;2.50;75.80
75621;DHT22;64574;48.506;-2.750;2022-12-07T05:32:56;2.40;76.10
75621;DHT22;64574;48.506;-2.750;2022-12-07T05:35:22;2.50;76.20
75621;DHT22;64574;48.506;-2.750;2022-12-07T05:37:47;2.40;76.20
75621;DHT22;64574;48.506;-2.750;2022-12-07T05:40:14;2.40;76.50
75621;DHT22;64574;48.506;-2.750;2022-12-07T05:42:40;2.40;76.40
75621;DHT22;64574;48.506;-2.750;2022-12-07T05:45:07;2.40;76.40
75621;DHT22;64574;48.506;-2.750;2022-12-07T05:47:32;2.40;76.20
75621;DHT22;64574;48.506;-2.750;2022-12-07T05:49:58;2.40;76.50
75621;DHT22;64574;48.506;-2.750;2022-12-07T05:52:26;2.40;76.30
75621;DHT22;64574;48.506;-2.750;2022-12-07T05:54:52;2.50;76.20
75621;DHT22;64574;48.506;-2.750;2022-12-07T05:57:18;2.40;76.00
75621;DHT22;64574;48.506;-2.750;2022-12-07T05:59:44;2.30;76.10
75621;DHT22;64574;48.506;-2.750;2022-12-07T06:02:11;2.30;76.00
75621;DHT22;64574;48.506;-2.750;2022-12-07T06:04:41;2.30;76.10
75621;DHT22;64574;48.506;-2.750;2022-12-07T06:07:07;2.20;76.20
75621;DHT22;64574;48.506;-2.750;2022-12-07T06:09:34;2.30;76.10
75621;DHT22;64574;48.506;-2.750;2022-12-07T06:12:00;2.40;75.90
75621;DHT22;64574;48.506;-2.750;2022-12-07T06:14:44;2.30;75.70
75621;DHT22;64574;48.506;-2.750;2022-12-07T06:17:10;2.30;75.80
75621;DHT22;64574;48.506;-2.750;2022-12-07T06:19:37;2.30;75.70
75621;DHT22;64574;48.506;-2.750;2022-12-07T06:22:03;2.10;75.90
75621;DHT22;64574;48.506;-2.750;2022-12-07T06:24:30;2.10;76.20
75621;DHT22;64574;48.506;-2.750;2022-12-07T06:26:56;2.20;76.00
75621;DHT22;64574;48.506;-2.750;2022-12-07T06:29:22;2.20;76.00
75621;DHT22;64574;48.506;-2.750;2022-12-07T06:31:47;2.20;75.90
75621;DHT22;64574;48.506;-2.750;2022-12-07T06:34:15;2.20;76.00
75621;DHT22;64574;48.506;-2.750;2022-12-07T06:36:41;2.30;76.10
75621;DHT22;64574;48.506;-2.750;2022-12-07T06:39:07;2.30;75.60
75621;DHT22;64574;48.506;-2.750;2022-12-07T06:41:35;2.20;75.70
75621;DHT22;64574;48.506;-2.750;2022-12-07T06:44:02;2.30;75.80
75621;DHT22;64574;48.506;-2.750;2022-12-07T06:46:27;2.30;75.60
75621;DHT22;64574;48.506;-2.750;2022-12-07T06:48:53;2.30;75.80
75621;DHT22;64574;48.506;-2.750;2022-12-07T06:51:19;2.20;75.70
75621;DHT22;64574;48.506;-2.750;2022-12-07T06:53:44;2.20;75.70
75621;DHT22;64574;48.506;-2.750;2022-12-07T06:56:10;2.30;75.50
75621;DHT22;64574;48.506;-2.750;2022-12-07T06:58:35;2.20;75.40
75621;DHT22;64574;48.506;-2.750;2022-12-07T07:01:02;2.20;75.60
75621;DHT22;64574;48.506;-2.750;2022-12-07T07:03:28;2.20;75.50
75621;DHT22;64574;48.506;-2.750;2022-12-07T07:05:54;2.20;75.30
75621;DHT22;64574;48.506;-2.750;2022-12-07T07:08:19;2.30;75.30
75621;DHT22;64574;48.506;-2.750;2022-12-07T07:10:45;2.40;75.00
75621;DHT22;64574;48.506;-2.750;2022-12-07T07:13:11;2.40;74.90
75621;DHT22;64574;48.506;-2.750;2022-12-07T07:15:37;2.40;74.70
75621;DHT22;64574;48.506;-2.750;2022-12-07T07:18:03;2.40;74.70
75621;DHT22;64574;48.506;-2.750;2022-12-07T07:20:29;2.40;74.60
75621;DHT22;64574;48.506;-2.750;2022-12-07T07:22:55;2.30;74.70
75621;DHT22;64574;48.506;-2.750;2022-12-07T07:25:21;2.20;75.00
75621;DHT22;64574;48.506;-2.750;2022-12-07T07:27:47;2.20;75.20
75621;DHT22;64574;48.506;-2.750;2022-12-07T07:30:12;2.20;75.00
75621;DHT22;64574;48.506;-2.750;2022-12-07T07:32:38;2.30;75.20
75621;DHT22;64574;48.506;-2.750;2022-12-07T07:35:04;2.30;75.00
75621;DHT22;64574;48.506;-2.750;2022-12-07T07:37:30;2.40;75.00
75621;DHT22;64574;48.506;-2.750;2022-12-07T07:39:56;2.40;74.80
75621;DHT22;64574;48.506;-2.750;2022-12-07T07:42:21;2.30;75.00
75621;DHT22;64574;48.506;-2.750;2022-12-07T07:44:47;2.30;75.40
75621;DHT22;64574;48.506;-2.750;2022-12-07T07:47:13;2.30;75.40
75621;DHT22;64574;48.506;-2.750;2022-12-07T07:49:38;2.40;75.30
75621;DHT22;64574;48.506;-2.750;2022-12-07T07:52:05;2.40;75.10
75621;DHT22;64574;48.506;-2.750;2022-12-07T07:54:31;2.40;75.10
75621;DHT22;64574;48.506;-2.750;2022-12-07T07:56:57;2.40;75.00
75621;DHT22;64574;48.506;-2.750;2022-12-07T07:59:22;2.40;75.20
75621;DHT22;64574;48.506;-2.750;2022-12-07T08:01:48;2.40;75.50
75621;DHT22;64574;48.506;-2.750;2022-12-07T08:04:14;2.50;75.30
75621;DHT22;64574;48.506;-2.750;2022-12-07T08:06:39;2.50;75.30
75621;DHT22;64574;48.506;-2.750;2022-12-07T08:09:07;2.50;75.20
75621;DHT22;64574;48.506;-2.750;2022-12-07T08:11:33;2.50;75.30
75621;DHT22;64574;48.506;-2.750;2022-12-07T08:13:59;2.50;75.00
75621;DHT22;64574;48.506;-2.750;2022-12-07T08:16:25;2.50;75.10
75621;DHT22;64574;48.506;-2.750;2022-12-07T08:18:50;2.50;75.20
75621;DHT22;64574;48.506;-2.750;2022-12-07T08:21:16;2.60;75.10
75621;DHT22;64574;48.506;-2.750;2022-12-07T08:23:42;2.60;75.20
75621;DHT22;64574;48.506;-2.750;2022-12-07T08:26:10;2.70;75.40
75621;DHT22;64574;48.506;-2.750;2022-12-07T08:28:37;2.70;75.10
75621;DHT22;64574;48.506;-2.750;2022-12-07T08:31:08;2.70;75.50
75621;DHT22;64574;48.506;-2.750;2022-12-07T08:33:35;2.70;75.50
75621;DHT22;64574;48.506;-2.750;2022-12-07T08:36:06;2.70;76.00
75621;DHT22;64574;48.506;-2.750;2022-12-07T08:38:34;2.80;75.90
75621;DHT22;64574;48.506;-2.750;2022-12-07T08:40:59;2.80;76.20
75621;DHT22;64574;48.506;-2.750;2022-12-07T08:43:25;2.80;76.10
75621;DHT22;64574;48.506;-2.750;2022-12-07T08:46:07;2.70;76.50
75621;DHT22;64574;48.506;-2.750;2022-12-07T08:48:37;2.70;76.70
75621;DHT22;64574;48.506;-2.750;2022-12-07T08:51:03;2.80;76.50
75621;DHT22;64574;48.506;-2.750;2022-12-07T08:53:29;2.90;76.50
75621;DHT22;64574;48.506;-2.750;2022-12-07T08:55:56;2.80;76.70
75621;DHT22;64574;48.506;-2.750;2022-12-07T08:58:22;2.90;76.60
75621;DHT22;64574;48.506;-2.750;2022-12-07T09:00:48;2.90;76.60
75621;DHT22;64574;48.506;-2.750;2022-12-07T09:03:13;2.90;76.60
75621;DHT22;64574;48.506;-2.750;2022-12-07T09:05:39;3.00;76.70
75621;DHT22;64574;48.506;-2.750;2022-12-07T09:08:05;3.00;76.80
75621;DHT22;64574;48.506;-2.750;2022-12-07T09:10:32;3.00;76.80
75621;DHT22;64574;48.506;-2.750;2022-12-07T09:12:57;3.00;77.20
75621;DHT22;64574;48.506;-2.750;2022-12-07T09:15:27;3.00;77.40
75621;DHT22;64574;48.506;-2.750;2022-12-07T09:17:53;3.10;77.70
75621;DHT22;64574;48.506;-2.750;2022-12-07T09:20:18;3.10;77.50
75621;DHT22;64574;48.506;-2.750;2022-12-07T09:22:44;3.20;77.40
75621;DHT22;64574;48.506;-2.750;2022-12-07T09:25:09;3.10;77.20
75621;DHT22;64574;48.506;-2.750;2022-12-07T09:27:35;3.10;77.70
75621;DHT22;64574;48.506;-2.750;2022-12-07T09:30:01;3.10;78.00
75621;DHT22;64574;48.506;-2.750;2022-12-07T09:32:27;3.10;78.10
75621;DHT22;64574;48.506;-2.750;2022-12-07T09:34:53;3.10;78.40
75621;DHT22;64574;48.506;-2.750;2022-12-07T09:37:19;3.10;78.40
75621;DHT22;64574;48.506;-2.750;2022-12-07T09:39:45;3.10;78.70
75621;DHT22;64574;48.506;-2.750;2022-12-07T09:44:50;3.10;79.00
75621;DHT22;64574;48.506;-2.750;2022-12-07T09:47:16;3.30;79.20
75621;DHT22;64574;48.506;-2.750;2022-12-07T09:49:41;3.30;79.20
75621;DHT22;64574;48.506;-2.750;2022-12-07T09:54:44;3.30;79.60
75621;DHT22;64574;48.506;-2.750;2022-12-07T09:57:11;3.40;79.60
75621;DHT22;64574;48.506;-2.750;2022-12-07T09:59:38;3.50;79.60
75621;DHT22;64574;48.506;-2.750;2022-12-07T10:04:49;3.50;80.10
75621;DHT22;64574;48.506;-2.750;2022-12-07T10:07:15;3.60;79.90
75621;DHT22;64574;48.506;-2.750;2022-12-07T10:09:41;3.70;79.60
75621;DHT22;64574;48.506;-2.750;2022-12-07T10:12:09;3.70;79.60
75621;DHT22;64574;48.506;-2.750;2022-12-07T10:14:38;3.50;79.60
75621;DHT22;64574;48.506;-2.750;2022-12-07T10:19:52;3.60;79.70
75621;DHT22;64574;48.506;-2.750;2022-12-07T10:22:33;3.70;79.80
75621;DHT22;64574;48.506;-2.750;2022-12-07T10:25:08;3.70;79.80
75621;DHT22;64574;48.506;-2.750;2022-12-07T10:27:34;3.70;79.80
75621;DHT22;64574;48.506;-2.750;2022-12-07T10:30:01;3.60;79.80
75621;DHT22;64574;48.506;-2.750;2022-12-07T10:32:36;3.70;79.70
75621;DHT22;64574;48.506;-2.750;2022-12-07T10:37:47;3.90;79.90
75621;DHT22;64574;48.506;-2.750;2022-12-07T10:40:34;3.90;79.80
75621;DHT22;64574;48.506;-2.750;2022-12-07T10:45:26;3.90;80.00
75621;DHT22;64574;48.506;-2.750;2022-12-07T11:20:28;4.70;78.60
75621;DHT22;64574;48.506;-2.750;2022-12-07T11:22:59;4.80;78.40
75621;DHT22;64574;48.506;-2.750;2022-12-07T11:25:38;4.90;78.30
75621;DHT22;64574;48.506;-2.750;2022-12-07T11:28:18;4.90;78.30
75621;DHT22;64574;48.506;-2.750;2022-12-07T11:31:30;5.00;78.00
75621;DHT22;64574;48.506;-2.750;2022-12-07T11:33:47;5.00;77.80
75621;DHT22;64574;48.506;-2.750;2022-12-07T11:41:55;5.00;78.40
75621;DHT22;64574;48.506;-2.750;2022-12-07T11:44:33;5.00;78.50
75621;DHT22;64574;48.506;-2.750;2022-12-07T11:47:08;5.10;78.10
75621;DHT22;64574;48.506;-2.750;2022-12-07T11:54:53;5.20;78.10
75621;DHT22;64574;48.506;-2.750;2022-12-07T11:57:36;5.20;78.40
75621;DHT22;64574;48.506;-2.750;2022-12-07T12:00:05;5.10;78.40
75621;DHT22;64574;48.506;-2.750;2022-12-07T12:02:43;5.10;78.70
75621;DHT22;64574;48.506;-2.750;2022-12-07T12:05:18;5.10;78.70
75621;DHT22;64574;48.506;-2.750;2022-12-07T12:07:52;5.00;78.90
75621;DHT22;64574;48.506;-2.750;2022-12-07T12:10:34;5.10;78.40
75621;DHT22;64574;48.506;-2.750;2022-12-07T12:13:20;5.10;78.50
75621;DHT22;64574;48.506;-2.750;2022-12-07T12:21:12;5.30;77.00
75621;DHT22;64574;48.506;-2.750;2022-12-07T12:23:45;5.30;76.70
75621;DHT22;64574;48.506;-2.750;2022-12-07T12:26:28;5.30;76.60
75621;DHT22;64574;48.506;-2.750;2022-12-07T12:34:00;5.30;76.40
75621;DHT22;64574;48.506;-2.750;2022-12-07T12:39:13;5.30;76.80
75621;DHT22;64574;48.506;-2.750;2022-12-07T12:51:46;5.50;78.20
75621;DHT22;64574;48.506;-2.750;2022-12-07T12:56:55;5.50;78.80
75621;DHT22;64574;48.506;-2.750;2022-12-07T13:01:54;5.50;78.70
75621;DHT22;64574;48.506;-2.750;2022-12-07T13:04:34;5.50;79.00
75621;DHT22;64574;48.506;-2.750;2022-12-07T13:07:02;5.50;79.20
75621;DHT22;64574;48.506;-2.750;2022-12-07T13:09:31;5.50;79.40
75621;DHT22;64574;48.506;-2.750;2022-12-07T13:12:02;5.50;79.60
75621;DHT22;64574;48.506;-2.750;2022-12-07T13:19:55;5.50;79.60
75621;DHT22;64574;48.506;-2.750;2022-12-07T13:25:30;5.50;79.80
75621;DHT22;64574;48.506;-2.750;2022-12-07T13:28:20;5.50;79.80
75621;DHT22;64574;48.506;-2.750;2022-12-07T13:33:38;5.50;80.50
75621;DHT22;64574;48.506;-2.750;2022-12-07T13:36:04;5.50;80.80
75621;DHT22;64574;48.506;-2.750;2022-12-07T13:38:35;5.50;81.00
75621;DHT22;64574;48.506;-2.750;2022-12-07T13:41:15;5.50;81.20
75621;DHT22;64574;48.506;-2.750;2022-12-07T13:46:17;5.50;81.50
75621;DHT22;64574;48.506;-2.750;2022-12-07T13:48:47;5.50;81.40
75621;DHT22;64574;48.506;-2.750;2022-12-07T13:51:25;5.50;81.20
75621;DHT22;64574;48.506;-2.750;2022-12-07T13:54:00;5.50;81.20
75621;DHT22;64574;48.506;-2.750;2022-12-07T13:56:31;5.50;81.30
75621;DHT22;64574;48.506;-2.750;2022-12-07T13:58:58;5.50;81.30
75621;DHT22;64574;48.506;-2.750;2022-12-07T14:01:25;5.60;81.20
75621;DHT22;64574;48.506;-2.750;2022-12-07T14:03:50;5.60;81.20
75621;DHT22;64574;48.506;-2.750;2022-12-07T14:06:26;5.60;81.20
75621;DHT22;64574;48.506;-2.750;2022-12-07T14:09:16;5.60;81.10
75621;DHT22;64574;48.506;-2.750;2022-12-07T14:11:43;5.60;81.10
75621;DHT22;64574;48.506;-2.750;2022-12-07T14:14:20;5.60;81.20
75621;DHT22;64574;48.506;-2.750;2022-12-07T14:17:00;5.60;81.20
75621;DHT22;64574;48.506;-2.750;2022-12-07T14:19:55;5.60;81.60
75621;DHT22;64574;48.506;-2.750;2022-12-07T14:25:09;5.60;81.30
75621;DHT22;64574;48.506;-2.750;2022-12-07T14:27:39;5.60;81.10
75621;DHT22;64574;48.506;-2.750;2022-12-07T14:30:16;5.60;81.00
75621;DHT22;64574;48.506;-2.750;2022-12-07T14:32:43;5.60;80.90
75621;DHT22;64574;48.506;-2.750;2022-12-07T14:35:16;5.60;80.90
75621;DHT22;64574;48.506;-2.750;2022-12-07T14:37:45;5.70;80.90
75621;DHT22;64574;48.506;-2.750;2022-12-07T14:40:23;5.60;81.10
75621;DHT22;64574;48.506;-2.750;2022-12-07T14:42:57;5.60;81.20
75621;DHT22;64574;48.506;-2.750;2022-12-07T14:45:24;5.60;81.20
75621;DHT22;64574;48.506;-2.750;2022-12-07T14:47:49;5.70;81.30
75621;DHT22;64574;48.506;-2.750;2022-12-07T14:50:17;5.60;81.20
75621;DHT22;64574;48.506;-2.750;2022-12-07T14:52:46;5.70;81.10
75621;DHT22;64574;48.506;-2.750;2022-12-07T14:55:22;5.60;81.20
75621;DHT22;64574;48.506;-2.750;2022-12-07T14:57:48;5.60;81.20
75621;DHT22;64574;48.506;-2.750;2022-12-07T15:00:15;5.60;81.10
75621;DHT22;64574;48.506;-2.750;2022-12-07T15:02:43;5.60;81.10
75621;DHT22;64574;48.506;-2.750;2022-12-07T15:05:08;5.60;81.00
75621;DHT22;64574;48.506;-2.750;2022-12-07T15:07:35;5.60;81.10
75621;DHT22;64574;48.506;-2.750;2022-12-07T15:10:01;5.60;81.30
75621;DHT22;64574;48.506;-2.750;2022-12-07T15:12:26;5.60;81.60
75621;DHT22;64574;48.506;-2.750;2022-12-07T15:14:52;5.60;82.00
75621;DHT22;64574;48.506;-2.750;2022-12-07T15:17:18;5.60;81.90
75621;DHT22;64574;48.506;-2.750;2022-12-07T15:19:43;5.60;82.10
75621;DHT22;64574;48.506;-2.750;2022-12-07T15:22:09;5.60;82.10
75621;DHT22;64574;48.506;-2.750;2022-12-07T15:24:36;5.60;82.10
75621;DHT22;64574;48.506;-2.750;2022-12-07T15:27:02;5.60;82.00
75621;DHT22;64574;48.506;-2.750;2022-12-07T15:29:31;5.60;82.00
75621;DHT22;64574;48.506;-2.750;2022-12-07T15:31:57;5.60;81.90
75621;DHT22;64574;48.506;-2.750;2022-12-07T15:34:27;5.60;82.00
75621;DHT22;64574;48.506;-2.750;2022-12-07T15:36:54;5.60;81.90
75621;DHT22;64574;48.506;-2.750;2022-12-07T15:39:19;5.60;81.70
75621;DHT22;64574;48.506;-2.750;2022-12-07T15:41:45;5.60;81.50
75621;DHT22;64574;48.506;-2.750;2022-12-07T15:44:14;5.60;81.60
75621;DHT22;64574;48.506;-2.750;2022-12-07T15:46:58;5.60;81.90
75621;DHT22;64574;48.506;-2.750;2022-12-07T15:49:24;5.60;81.80
75621;DHT22;64574;48.506;-2.750;2022-12-07T15:51:49;5.60;82.00
75621;DHT22;64574;48.506;-2.750;2022-12-07T15:54:21;5.60;81.90
75621;DHT22;64574;48.506;-2.750;2022-12-07T15:56:47;5.50;81.90
75621;DHT22;64574;48.506;-2.750;2022-12-07T15:59:13;5.50;82.10
75621;DHT22;64574;48.506;-2.750;2022-12-07T16:01:39;5.50;82.10
75621;DHT22;64574;48.506;-2.750;2022-12-07T16:04:05;5.50;82.20
75621;DHT22;64574;48.506;-2.750;2022-12-07T16:06:30;5.50;82.20
75621;DHT22;64574;48.506;-2.750;2022-12-07T16:08:56;5.50;82.30
75621;DHT22;64574;48.506;-2.750;2022-12-07T16:11:22;5.50;82.20
75621;DHT22;64574;48.506;-2.750;2022-12-07T16:13:48;5.50;82.10
75621;DHT22;64574;48.506;-2.750;2022-12-07T16:16:16;5.50;81.90
75621;DHT22;64574;48.506;-2.750;2022-12-07T16:18:43;5.50;82.00
75621;DHT22;64574;48.506;-2.750;2022-12-07T16:21:08;5.50;82.00
75621;DHT22;64574;48.506;-2.750;2022-12-07T16:23:34;5.50;81.90
75621;DHT22;64574;48.506;-2.750;2022-12-07T16:26:05;5.50;82.10
75621;DHT22;64574;48.506;-2.750;2022-12-07T16:28:31;5.50;82.10
75621;DHT22;64574;48.506;-2.750;2022-12-07T16:31:05;5.50;82.00
75621;DHT22;64574;48.506;-2.750;2022-12-07T16:33:33;5.50;82.00
75621;DHT22;64574;48.506;-2.750;2022-12-07T16:36:00;5.50;82.10
75621;DHT22;64574;48.506;-2.750;2022-12-07T16:38:28;5.50;82.40
75621;DHT22;64574;48.506;-2.750;2022-12-07T16:40:54;5.50;82.40
75621;DHT22;64574;48.506;-2.750;2022-12-07T16:43:20;5.50;82.70
75621;DHT22;64574;48.506;-2.750;2022-12-07T16:45:46;5.50;83.40
75621;DHT22;64574;48.506;-2.750;2022-12-07T16:48:13;5.40;83.60
75621;DHT22;64574;48.506;-2.750;2022-12-07T16:50:40;5.50;83.60
75621;DHT22;64574;48.506;-2.750;2022-12-07T16:53:10;5.30;84.00
75621;DHT22;64574;48.506;-2.750;2022-12-07T16:55:41;5.30;84.30
75621;DHT22;64574;48.506;-2.750;2022-12-07T16:58:07;5.40;84.10
75621;DHT22;64574;48.506;-2.750;2022-12-07T17:00:33;5.40;84.00
75621;DHT22;64574;48.506;-2.750;2022-12-07T17:02:59;5.30;83.90
75621;DHT22;64574;48.506;-2.750;2022-12-07T17:05:26;5.30;83.90
75621;DHT22;64574;48.506;-2.750;2022-12-07T17:07:54;5.30;83.90
75621;DHT22;64574;48.506;-2.750;2022-12-07T17:10:20;5.30;83.80
75621;DHT22;64574;48.506;-2.750;2022-12-07T17:12:46;5.30;83.70
75621;DHT22;64574;48.506;-2.750;2022-12-07T17:15:12;5.30;83.70
75621;DHT22;64574;48.506;-2.750;2022-12-07T17:17:51;5.30;83.60
75621;DHT22;64574;48.506;-2.750;2022-12-07T17:20:17;5.30;83.60
75621;DHT22;64574;48.506;-2.750;2022-12-07T17:22:43;5.30;83.60
75621;DHT22;64574;48.506;-2.750;2022-12-07T17:25:09;5.30;83.60
75621;DHT22;64574;48.506;-2.750;2022-12-07T17:27:35;5.30;83.70
75621;DHT22;64574;48.506;-2.750;2022-12-07T17:30:01;5.20;83.70
75621;DHT22;64574;48.506;-2.750;2022-12-07T17:32:28;5.20;83.70
75621;DHT22;64574;48.506;-2.750;2022-12-07T17:34:53;5.10;83.80
75621;DHT22;64574;48.506;-2.750;2022-12-07T17:37:19;5.10;83.90
75621;DHT22;64574;48.506;-2.750;2022-12-07T17:39:44;5.10;83.80
75621;DHT22;64574;48.506;-2.750;2022-12-07T17:42:10;5.00;83.70
75621;DHT22;64574;48.506;-2.750;2022-12-07T17:44:54;5.00;83.50
75621;DHT22;64574;48.506;-2.750;2022-12-07T17:47:20;4.90;83.70
75621;DHT22;64574;48.506;-2.750;2022-12-07T17:49:46;4.90;83.70
75621;DHT22;64574;48.506;-2.750;2022-12-07T17:52:12;4.80;83.50
75621;DHT22;64574;48.506;-2.750;2022-12-07T17:54:57;4.90;83.70
75621;DHT22;64574;48.506;-2.750;2022-12-07T17:57:22;4.90;83.70